createdAt,value
2024-02-04T00:00:06.679Z,92939.84
2024-02-04T00:02:34.122Z,92937.09
2024-02-04T00:05:00.801Z,92925.94
2024-02-04T00:07:28.116Z,92931.38
2024-02-04T00:09:54.799Z,92925.94
2024-02-04T00:12:22.611Z,92927.19
2024-02-04T00:14:50.963Z,92925.94
2024-02-04T00:17:17.827Z,92908.81
2024-02-04T00:19:44.424Z,92906.59
2024-02-04T00:22:11.162Z,92919.00
2024-02-04T00:24:37.922Z,92915.25
2024-02-04T00:27:04.755Z,92922.94
2024-02-04T00:29:31.404Z,92926.91
2024-02-04T00:31:57.984Z,92929.38
2024-02-04T00:34:24.654Z,92930.84
2024-02-04T00:36:51.308Z,92926.66
2024-02-04T00:39:17.966Z,92918.47
2024-02-04T00:41:44.553Z,92922.41
2024-02-04T00:44:11.118Z,92926.66
2024-02-04T00:46:37.686Z,92929.38
2024-02-04T00:49:04.495Z,92932.59
2024-02-04T00:51:31.406Z,92941.50
2024-02-04T00:53:58.038Z,92944.22
2024-02-04T00:56:24.621Z,92944.22
2024-02-04T00:58:51.208Z,92948.19
2024-02-04T01:01:18.427Z,92954.63
2024-02-04T01:03:45.264Z,92959.59
2024-02-04T01:06:11.983Z,92971.72
2024-02-04T01:08:38.940Z,92975.19
2024-02-04T01:11:06.837Z,92993.53
2024-02-04T01:13:33.783Z,92995.53
2024-02-04T01:16:00.546Z,92990.06
2024-02-04T01:18:27.368Z,92974.16
2024-02-04T01:20:54.011Z,92981.13
2024-02-04T01:23:21.117Z,92974.94
2024-02-04T01:25:47.806Z,92976.91
2024-02-04T01:28:14.456Z,92976.91
2024-02-04T01:30:41.082Z,92976.16
2024-02-04T01:33:07.860Z,92979.63
2024-02-04T01:35:34.512Z,92983.09
2024-02-04T01:38:01.141Z,92981.34
2024-02-04T01:40:27.732Z,92986.81
2024-02-04T01:42:54.393Z,92994.97
2024-02-04T01:45:21.073Z,92994.97
2024-02-04T01:47:47.842Z,92973.66
2024-02-04T01:50:15.580Z,92973.66
2024-02-04T01:52:43.772Z,92949.84
2024-02-04T01:55:10.645Z,92936.22
2024-02-04T01:57:37.551Z,92935.50
2024-02-04T02:00:05.549Z,92939.44
2024-02-04T02:02:35.399Z,92935.97
2024-02-04T02:05:02.502Z,92916.91
2024-02-04T02:07:29.536Z,92920.84
2024-02-04T02:09:56.501Z,92924.81
2024-02-04T02:12:40.769Z,92919.38
2024-02-04T02:15:15.362Z,92917.84
2024-02-04T02:17:58.771Z,92913.41
2024-02-04T02:20:37.716Z,92904.22
2024-02-04T02:23:04.247Z,92898.78
2024-02-04T02:25:32.558Z,92897.28
2024-02-04T02:27:59.138Z,92881.19
2024-02-04T02:30:25.976Z,92875.00
2024-02-04T02:32:52.796Z,92880.44
2024-02-04T02:35:20.701Z,92885.13
2024-02-04T02:38:11.888Z,92889.09
2024-02-04T02:40:46.503Z,92881.41
2024-02-04T02:43:14.607Z,92873.72
2024-02-04T02:45:43.777Z,92886.13
2024-02-04T02:48:12.134Z,92888.84
2024-02-04T02:50:39.396Z,92886.13
2024-02-04T02:53:06.484Z,92896.75
2024-02-04T02:55:33.103Z,92893.53
2024-02-04T02:57:59.963Z,92888.84
2024-02-04T03:00:26.739Z,92875.22
2024-02-04T03:02:53.410Z,92874.94
2024-02-04T03:05:20.123Z,92880.41
2024-02-04T03:07:46.694Z,92872.22
2024-02-04T03:10:13.598Z,92872.22
2024-02-04T03:12:40.364Z,92872.97
2024-02-04T03:15:07.242Z,92872.22
2024-02-04T03:17:35.254Z,92881.66
2024-02-04T03:20:02.169Z,92896.50
2024-02-04T03:22:28.962Z,92884.09
2024-02-04T03:24:55.610Z,92885.59
2024-02-04T03:27:22.372Z,92893.50
2024-02-04T03:29:49.041Z,92908.16
2024-02-04T03:32:15.648Z,92908.91
2024-02-04T03:34:42.739Z,92905.41
2024-02-04T03:37:09.539Z,92903.44
2024-02-04T03:39:36.251Z,92901.94
2024-02-04T03:42:02.873Z,92907.38
2024-02-04T03:44:29.431Z,92912.84
2024-02-04T03:46:55.988Z,92908.38
2024-02-04T03:49:22.698Z,92918.28
2024-02-04T03:51:49.377Z,92925.72
2024-02-04T03:54:16.031Z,92934.66
2024-02-04T03:56:42.726Z,92923.00
2024-02-04T03:59:12.052Z,92925.00
2024-02-04T04:01:39.283Z,92928.94
2024-02-04T04:04:06.626Z,92930.94
2024-02-04T04:06:33.367Z,92936.38
2024-02-04T04:09:00.509Z,92935.63
2024-02-04T04:11:27.297Z,92947.28
2024-02-04T04:13:53.951Z,92938.34
2024-02-04T04:16:23.877Z,92941.06
2024-02-04T04:18:51.127Z,92951.97
2024-02-04T04:21:18.139Z,92945.00
2024-02-04T04:23:46.192Z,92943.53
2024-02-04T04:26:12.846Z,92938.84
2024-02-04T04:28:39.411Z,92943.53
2024-02-04T04:31:06.211Z,92943.81
2024-02-04T04:33:33.090Z,92948.97
2024-02-04T04:35:59.953Z,92952.94
2024-02-04T04:38:26.541Z,92954.44
2024-02-04T04:40:53.267Z,92963.84
2024-02-04T04:43:20.063Z,92962.34
2024-02-04T04:45:46.794Z,92959.88
2024-02-04T04:48:13.587Z,92955.91
2024-02-04T04:50:40.235Z,92965.34
2024-02-04T04:53:06.829Z,92969.31
2024-02-04T04:55:33.434Z,92974.75
2024-02-04T04:58:00.149Z,92973.25
2024-02-04T05:00:26.855Z,92974.75
2024-02-04T05:02:53.480Z,92978.69
2024-02-04T05:05:20.141Z,92986.88
2024-02-04T05:07:48.215Z,92983.38
2024-02-04T05:10:15.122Z,92988.13
2024-02-04T05:12:42.078Z,92981.41
2024-02-04T05:15:09.502Z,92975.97
2024-02-04T05:17:36.529Z,92967.78
2024-02-04T05:20:06.289Z,92978.69
2024-02-04T05:22:32.836Z,92982.66
2024-02-04T05:24:59.872Z,92972.50
2024-02-04T05:27:27.226Z,92954.66
2024-02-04T05:29:53.929Z,92964.81
2024-02-04T05:32:20.530Z,92963.31
2024-02-04T05:34:47.314Z,92966.03
2024-02-04T05:37:17.385Z,92961.59
2024-02-04T05:39:44.013Z,92964.31
2024-02-04T05:42:10.638Z,92964.81
2024-02-04T05:44:37.267Z,92964.81
2024-02-04T05:47:04.024Z,92963.59
2024-02-04T05:49:30.798Z,92966.31
2024-02-04T05:51:57.461Z,92967.03
2024-02-04T05:54:24.472Z,92975.22
2024-02-04T05:56:51.089Z,92974.50
2024-02-04T05:59:17.821Z,92965.81
2024-02-04T06:01:45.935Z,92973.25
2024-02-04T06:04:12.903Z,92961.81
2024-02-04T06:06:39.735Z,92979.41
2024-02-04T06:09:06.486Z,92994.50
2024-02-04T06:11:33.094Z,92988.31
2024-02-04T06:13:59.644Z,92992.53
2024-02-04T06:16:27.360Z,92987.84
2024-02-04T06:18:57.052Z,92979.88
2024-02-04T06:21:23.957Z,92977.66
2024-02-04T06:23:50.554Z,92981.59
2024-02-04T06:26:17.118Z,92976.88
2024-02-04T06:28:47.475Z,92980.63
2024-02-04T06:31:14.835Z,92982.13
2024-02-04T06:33:41.665Z,92975.91
2024-02-04T06:36:11.953Z,92979.41
2024-02-04T06:38:38.590Z,92986.81
2024-02-04T06:41:05.365Z,92971.22
2024-02-04T06:43:35.561Z,92975.19
2024-02-04T06:46:03.866Z,92990.28
2024-02-04T06:48:30.651Z,92986.59
2024-02-04T06:50:57.342Z,92978.91
2024-02-04T06:53:23.957Z,92976.66
2024-02-04T06:55:50.513Z,92972.91
2024-02-04T06:58:17.072Z,92972.19
2024-02-04T07:00:43.790Z,92978.84
2024-02-04T07:03:11.024Z,92975.41
2024-02-04T07:05:38.594Z,92980.09
2024-02-04T07:08:05.364Z,92988.28
2024-02-04T07:10:32.005Z,92988.00
2024-02-04T07:12:58.638Z,92978.59
2024-02-04T07:15:25.867Z,92988.28
2024-02-04T07:17:52.642Z,92980.09
2024-02-04T07:20:19.990Z,92970.69
2024-02-04T07:22:46.784Z,92968.22
2024-02-04T07:25:13.480Z,92987.31
2024-02-04T07:27:40.163Z,92990.03
2024-02-04T07:30:07.424Z,92990.03
2024-02-04T07:32:35.692Z,92990.78
2024-02-04T07:35:03.092Z,92989.28
2024-02-04T07:37:29.994Z,92989.75
2024-02-04T07:39:56.700Z,92985.56
2024-02-04T07:42:23.591Z,92998.19
2024-02-04T07:44:50.183Z,92998.47
2024-02-04T07:47:17.277Z,93002.44
2024-02-04T07:49:44.044Z,93003.94
2024-02-04T07:52:10.818Z,92997.00
2024-02-04T07:54:37.486Z,92992.00
2024-02-04T07:57:04.324Z,93000.94
2024-02-04T07:59:30.947Z,93004.91
2024-02-04T08:01:57.602Z,93003.94
2024-02-04T08:04:24.363Z,92987.56
2024-02-04T08:06:51.205Z,92977.44
2024-02-04T08:09:17.986Z,92976.66
2024-02-04T08:11:44.598Z,92982.13
2024-02-04T08:14:11.194Z,92989.06
2024-02-04T08:16:37.766Z,92985.59
2024-02-04T08:19:07.173Z,92983.88
2024-02-04T08:21:34.004Z,92981.84
2024-02-04T08:24:00.616Z,92995.47
2024-02-04T08:26:27.255Z,92995.47
2024-02-04T08:28:53.873Z,92986.81
2024-02-04T08:31:20.822Z,92985.34
2024-02-04T08:33:47.662Z,92976.41
2024-02-04T08:36:14.270Z,92975.19
2024-02-04T08:38:42.244Z,92979.41
2024-02-04T08:41:09.011Z,92976.66
2024-02-04T08:43:37.688Z,92975.91
2024-02-04T08:46:10.875Z,92972.19
2024-02-04T08:48:40.680Z,92975.19
2024-02-04T08:51:12.739Z,92969.75
2024-02-04T08:53:39.333Z,92976.66
2024-02-04T08:56:09.743Z,92968.94
2024-02-04T08:58:38.290Z,92984.84
2024-02-04T09:01:06.193Z,92970.94
2024-02-04T09:03:34.250Z,92961.28
2024-02-04T09:06:01.024Z,92968.22
2024-02-04T09:08:27.604Z,92952.16
2024-02-04T09:10:54.159Z,92948.31
2024-02-04T09:13:20.884Z,92938.16
2024-02-04T09:15:47.791Z,92947.84
2024-02-04T09:18:14.618Z,92950.81
2024-02-04T09:20:41.377Z,92946.88
2024-02-04T09:23:08.043Z,92941.41
2024-02-04T09:25:34.950Z,92941.41
2024-02-04T09:28:01.818Z,92934.72
2024-02-04T09:30:28.606Z,92938.97
2024-02-04T09:32:55.508Z,92940.44
2024-02-04T09:35:22.477Z,92932.25
2024-02-04T09:37:49.464Z,92928.06
2024-02-04T09:40:16.237Z,92922.34
2024-02-04T09:42:43.111Z,92924.84
2024-02-04T09:45:11.030Z,92909.25
2024-02-04T09:47:39.922Z,92902.06
2024-02-04T09:50:07.158Z,92899.84
2024-02-04T09:52:38.128Z,92900.38
2024-02-04T09:55:08.102Z,92897.91
2024-02-04T09:57:36.217Z,92897.91
2024-02-04T10:00:05.922Z,92889.25
2024-02-04T10:02:33.674Z,92891.47
2024-02-04T10:05:00.695Z,92887.53
2024-02-04T10:07:27.988Z,92889.03
2024-02-04T10:09:54.897Z,92891.25
2024-02-04T10:12:21.816Z,92884.81
2024-02-04T10:14:50.496Z,92886.56
2024-02-04T10:17:17.473Z,92885.31
2024-02-04T10:19:44.266Z,92882.59
2024-02-04T10:22:11.723Z,92863.78
2024-02-04T10:24:38.391Z,92857.56
2024-02-04T10:27:05.356Z,92856.63
2024-02-04T10:29:32.096Z,92862.84
2024-02-04T10:31:59.120Z,92860.34
2024-02-04T10:34:31.234Z,92856.41
2024-02-04T10:36:58.274Z,92853.94
2024-02-04T10:39:24.947Z,92851.47
2024-02-04T10:41:53.698Z,92843.53
2024-02-04T10:44:25.410Z,92847.00
2024-02-04T10:46:55.047Z,92835.63
2024-02-04T10:49:22.775Z,92827.44
2024-02-04T10:51:51.570Z,92819.53
2024-02-04T10:54:22.070Z,92816.78
2024-02-04T10:56:57.383Z,92823.75
2024-02-04T10:59:25.855Z,92827.47
2024-02-04T11:01:53.046Z,92815.81
2024-02-04T11:04:20.104Z,92824.25
2024-02-04T11:06:47.479Z,92820.31
2024-02-04T11:09:17.391Z,92806.19
2024-02-04T11:11:44.987Z,92801.75
2024-02-04T11:14:15.545Z,92786.59
2024-02-04T11:16:56.267Z,92788.84
2024-02-04T11:19:56.512Z,92792.59
2024-02-04T11:22:35.032Z,92785.38
2024-02-04T11:25:34.496Z,92786.16
2024-02-04T11:28:01.510Z,92775.22
2024-02-04T11:30:28.580Z,92763.34
2024-02-04T11:32:55.388Z,92760.88
2024-02-04T11:35:24.037Z,92756.94
2024-02-04T11:37:51.314Z,92758.41
2024-02-04T11:40:22.266Z,92751.22
2024-02-04T11:42:49.038Z,92758.91
2024-02-04T11:45:16.216Z,92751.97
2024-02-04T11:47:43.056Z,92751.00
2024-02-04T11:50:12.036Z,92757.94
2024-02-04T11:52:40.698Z,92761.66
2024-02-04T11:55:08.608Z,92756.97
2024-02-04T11:57:36.155Z,92743.56
2024-02-04T12:00:06.824Z,92745.06
2024-02-04T12:02:34.273Z,92741.09
2024-02-04T12:05:01.764Z,92725.47
2024-02-04T12:07:30.988Z,92723.75
2024-02-04T12:09:58.347Z,92721.25
2024-02-04T12:12:26.209Z,92720.78
2024-02-04T12:14:54.074Z,92725.75
2024-02-04T12:17:21.635Z,92721.00
2024-02-04T12:19:48.344Z,92712.38
2024-02-04T12:22:15.237Z,92701.44
2024-02-04T12:24:42.003Z,92705.91
2024-02-04T12:27:08.799Z,92701.22
2024-02-04T12:29:35.629Z,92703.44
2024-02-04T12:32:04.848Z,92714.59
2024-02-04T12:34:33.491Z,92707.91
2024-02-04T12:37:04.053Z,92710.13
2024-02-04T12:39:34.085Z,92712.38
2024-02-04T12:42:01.120Z,92699.97
2024-02-04T12:44:27.791Z,92695.03
2024-02-04T12:46:54.708Z,92691.03
2024-02-04T12:49:26.252Z,92685.59
2024-02-04T12:51:57.317Z,92682.34
2024-02-04T12:54:24.123Z,92680.38
2024-02-04T12:56:51.812Z,92684.84
2024-02-04T12:59:44.480Z,92672.69
2024-02-04T13:02:14.920Z,92681.13
2024-02-04T13:04:44.303Z,92672.44
2024-02-04T13:07:15.107Z,92667.75
2024-02-04T13:09:42.851Z,92655.56
2024-02-04T13:12:10.891Z,92658.31
2024-02-04T13:14:42.536Z,92650.38
2024-02-04T13:17:09.212Z,92651.84
2024-02-04T13:19:37.817Z,92642.44
2024-02-04T13:22:10.925Z,92644.16
2024-02-04T13:24:38.387Z,92629.03
2024-02-04T13:27:06.837Z,92633.50
2024-02-04T13:29:33.429Z,92640.41
2024-02-04T13:32:00.224Z,92643.41
2024-02-04T13:34:26.980Z,92643.41
2024-02-04T13:36:53.701Z,92636.22
2024-02-04T13:39:20.303Z,92642.16
2024-02-04T13:41:46.905Z,92643.66
2024-02-04T13:44:13.635Z,92641.38
2024-02-04T13:46:44.160Z,92644.88
2024-02-04T13:49:13.570Z,92653.81
2024-02-04T13:51:44.640Z,92662.75
2024-02-04T13:54:16.445Z,92659.78
2024-02-04T13:56:43.806Z,92651.84
2024-02-04T13:59:10.369Z,92646.38
2024-02-04T14:01:37.085Z,92655.78
2024-02-04T14:04:04.057Z,92648.09
2024-02-04T14:06:30.992Z,92655.78
2024-02-04T14:08:57.587Z,92650.59
2024-02-04T14:11:24.203Z,92650.34
2024-02-04T14:13:50.755Z,92653.06
2024-02-04T14:16:17.462Z,92650.34
2024-02-04T14:18:47.482Z,92641.38
2024-02-04T14:21:17.541Z,92644.88
2024-02-04T14:23:44.390Z,92652.81
2024-02-04T14:26:18.765Z,92644.88
2024-02-04T14:28:45.390Z,92650.34
2024-02-04T14:31:12.080Z,92643.41
2024-02-04T14:33:38.921Z,92640.41
2024-02-04T14:36:05.950Z,92630.97
2024-02-04T14:38:32.978Z,92637.19
2024-02-04T14:40:59.930Z,92632.47
2024-02-04T14:43:26.992Z,92633.44
2024-02-04T14:45:53.608Z,92630.97
2024-02-04T14:48:20.360Z,92650.09
2024-02-04T14:50:48.336Z,92637.94
2024-02-04T14:53:15.139Z,92641.91
2024-02-04T14:55:41.775Z,92646.63
2024-02-04T14:58:08.399Z,92637.94
2024-02-04T15:00:35.152Z,92643.41
2024-02-04T15:03:01.875Z,92633.69
2024-02-04T15:05:28.583Z,92627.00
2024-02-04T15:07:58.248Z,92623.03
2024-02-04T15:10:24.887Z,92617.56
2024-02-04T15:12:53.756Z,92612.09
2024-02-04T15:15:21.203Z,92613.34
2024-02-04T15:17:48.187Z,92614.84
2024-02-04T15:20:19.188Z,92621.56
2024-02-04T15:22:46.616Z,92638.66
2024-02-04T15:25:16.000Z,92645.63
2024-02-04T15:27:45.702Z,92646.13
2024-02-04T15:30:13.906Z,92638.66
2024-02-04T15:32:40.845Z,92650.34
2024-02-04T15:35:08.304Z,92635.22
2024-02-04T15:37:34.957Z,92633.94
2024-02-04T15:40:01.875Z,92638.66
2024-02-04T15:42:28.613Z,92633.94
2024-02-04T15:44:55.202Z,92629.75
2024-02-04T15:47:24.160Z,92633.69
2024-02-04T15:49:51.159Z,92638.44
2024-02-04T15:52:18.154Z,92641.91
2024-02-04T15:54:45.025Z,92651.34
2024-02-04T15:57:14.256Z,92656.81
2024-02-04T15:59:40.857Z,92656.81
2024-02-04T16:02:11.533Z,92654.56
2024-02-04T16:04:38.683Z,92660.75
2024-02-04T16:07:06.088Z,92657.81
2024-02-04T16:09:33.000Z,92672.19
2024-02-04T16:12:06.856Z,92672.69
2024-02-04T16:14:38.171Z,92665.75
2024-02-04T16:17:05.733Z,92668.97
2024-02-04T16:19:33.357Z,92671.22
2024-02-04T16:22:00.010Z,92678.41
2024-02-04T16:24:26.706Z,92684.59
2024-02-04T16:26:53.449Z,92688.56
2024-02-04T16:29:20.047Z,92692.56
2024-02-04T16:31:46.613Z,92695.28
2024-02-04T16:34:13.313Z,92698.50
2024-02-04T16:36:40.027Z,92716.13
2024-02-04T16:39:06.827Z,92720.84
2024-02-04T16:41:33.484Z,92726.31
2024-02-04T16:44:00.031Z,92724.81
2024-02-04T16:46:26.587Z,92728.78
2024-02-04T16:48:53.328Z,92727.28
2024-02-04T16:51:19.978Z,92729.75
2024-02-04T16:53:47.410Z,92729.75
2024-02-04T16:56:19.754Z,92733.75
2024-02-04T16:58:46.335Z,92735.00
2024-02-04T17:01:13.018Z,92737.72
2024-02-04T17:03:40.111Z,92738.97
2024-02-04T17:06:09.390Z,92736.22
2024-02-04T17:08:36.572Z,92739.47
2024-02-04T17:11:03.404Z,92735.97
2024-02-04T17:13:30.185Z,92739.47
2024-02-04T17:15:57.196Z,92745.41
2024-02-04T17:18:46.025Z,92749.63
2024-02-04T17:21:14.292Z,92750.63
2024-02-04T17:23:42.135Z,92748.16
2024-02-04T17:26:10.196Z,92742.69
2024-02-04T17:28:37.154Z,92749.63
2024-02-04T17:31:04.097Z,92740.69
2024-02-04T17:33:31.134Z,92748.63
2024-02-04T17:35:57.809Z,92756.06
2024-02-04T17:38:24.703Z,92760.06
2024-02-04T17:40:51.274Z,92769.47
2024-02-04T17:43:18.947Z,92776.44
2024-02-04T17:45:45.639Z,92767.50
2024-02-04T17:48:12.423Z,92764.75
2024-02-04T17:50:38.992Z,92761.03
2024-02-04T17:53:07.665Z,92761.03
2024-02-04T17:55:36.101Z,92762.28
2024-02-04T17:58:04.504Z,92778.91
2024-02-04T18:00:31.606Z,92774.66
2024-02-04T18:02:58.995Z,92766.47
2024-02-04T18:05:25.860Z,92770.47
2024-02-04T18:07:54.166Z,92768.22
2024-02-04T18:10:22.274Z,92766.72
2024-02-04T18:12:49.099Z,92768.97
2024-02-04T18:15:15.836Z,92782.59
2024-02-04T18:17:44.098Z,92789.31
2024-02-04T18:20:13.069Z,92788.56
2024-02-04T18:22:39.738Z,92789.06
2024-02-04T18:25:11.650Z,92791.03
2024-02-04T18:27:43.134Z,92797.25
2024-02-04T18:30:12.348Z,92785.56
2024-02-04T18:32:39.199Z,92794.25
2024-02-04T18:35:06.566Z,92801.22
2024-02-04T18:37:33.634Z,92794.25
2024-02-04T18:40:00.630Z,92793.53
2024-02-04T18:42:27.734Z,92793.53
2024-02-04T18:44:55.581Z,92801.72
2024-02-04T18:47:22.572Z,92794.25
2024-02-04T18:49:49.309Z,92800.22
2024-02-04T18:52:16.057Z,92792.78
2024-02-04T18:54:42.719Z,92785.81
2024-02-04T18:57:09.702Z,92802.19
2024-02-04T18:59:36.990Z,92807.66
2024-02-04T19:02:03.900Z,92800.72
2024-02-04T19:04:30.855Z,92806.16
2024-02-04T19:07:00.669Z,92804.66
2024-02-04T19:09:27.694Z,92801.72
2024-02-04T19:11:54.300Z,92804.66
2024-02-04T19:14:23.064Z,92801.94
2024-02-04T19:16:49.718Z,92804.66
2024-02-04T19:19:16.418Z,92795.25
2024-02-04T19:21:44.576Z,92796.47
2024-02-04T19:24:11.189Z,92797.72
2024-02-04T19:26:37.822Z,92802.94
2024-02-04T19:29:04.422Z,92822.78
2024-02-04T19:31:31.001Z,92829.00
2024-02-04T19:33:57.787Z,92817.31
2024-02-04T19:36:24.463Z,92812.63
2024-02-04T19:38:51.068Z,92810.38
2024-02-04T19:41:17.679Z,92805.66
2024-02-04T19:43:44.271Z,92805.66
2024-02-04T19:46:10.911Z,92808.38
2024-02-04T19:48:37.700Z,92806.91
2024-02-04T19:51:05.104Z,92809.63
2024-02-04T19:53:31.759Z,92819.03
2024-02-04T19:55:58.529Z,92822.28
2024-02-04T19:58:25.162Z,92821.28
2024-02-04T20:00:51.848Z,92824.50
2024-02-04T20:03:18.583Z,92808.13
2024-02-04T20:05:45.424Z,92810.59
2024-02-04T20:08:12.016Z,92817.56
2024-02-04T20:10:38.581Z,92813.31
2024-02-04T20:13:05.300Z,92814.84
2024-02-04T20:15:32.140Z,92822.28
2024-02-04T20:17:59.739Z,92821.50
2024-02-04T20:20:27.845Z,92835.91
2024-02-04T20:22:57.155Z,92832.44
2024-02-04T20:25:28.667Z,92821.50
2024-02-04T20:27:57.252Z,92818.56
2024-02-04T20:30:30.003Z,92813.09
2024-02-04T20:32:57.909Z,92804.16
2024-02-04T20:35:28.981Z,92802.19
2024-02-04T20:38:02.024Z,92813.09
2024-02-04T20:40:28.746Z,92829.22
2024-02-04T20:42:55.626Z,92831.44
2024-02-04T20:45:22.570Z,92829.94
2024-02-04T20:47:50.372Z,92815.56
2024-02-04T20:50:17.707Z,92800.16
2024-02-04T20:52:44.628Z,92817.78
2024-02-04T20:55:11.413Z,92824.97
2024-02-04T20:57:39.018Z,92829.72
2024-02-04T21:00:08.033Z,92834.66
2024-02-04T21:02:35.041Z,92819.25
2024-02-04T21:05:01.858Z,92826.72
2024-02-04T21:07:28.810Z,92826.72
2024-02-04T21:09:55.610Z,92827.44
2024-02-04T21:12:23.355Z,92815.06
2024-02-04T21:14:50.232Z,92819.25
2024-02-04T21:17:16.804Z,92826.72
2024-02-04T21:19:43.610Z,92825.97
2024-02-04T21:22:10.288Z,92829.44
2024-02-04T21:24:37.011Z,92827.22
2024-02-04T21:27:03.967Z,92817.53
2024-02-04T21:29:30.548Z,92824.47
2024-02-04T21:31:57.424Z,92832.66
2024-02-04T21:34:24.154Z,92823.22
2024-02-04T21:36:50.966Z,92825.22
2024-02-04T21:39:19.425Z,92816.31
2024-02-04T21:41:46.146Z,92804.38
2024-02-04T21:44:14.399Z,92811.31
2024-02-04T21:46:47.145Z,92806.59
2024-02-04T21:49:14.066Z,92805.13
2024-02-04T21:51:40.859Z,92801.91
2024-02-04T21:54:07.474Z,92799.19
2024-02-04T21:56:34.158Z,92805.13
2024-02-04T21:59:01.554Z,92803.88
2024-02-04T22:01:28.343Z,92812.06
2024-02-04T22:03:55.095Z,92813.31
2024-02-04T22:06:21.768Z,92809.06
2024-02-04T22:08:49.043Z,92803.63
2024-02-04T22:11:16.160Z,92804.88
2024-02-04T22:13:42.715Z,92802.13
2024-02-04T22:16:10.041Z,92813.78
2024-02-04T22:18:36.823Z,92802.13
2024-02-04T22:21:04.507Z,92817.25
2024-02-04T22:23:31.616Z,92813.78
2024-02-04T22:25:58.249Z,92795.94
2024-02-04T22:28:24.857Z,92796.69
2024-02-04T22:30:51.740Z,92806.09
2024-02-04T22:33:18.477Z,92810.81
2024-02-04T22:35:45.046Z,92812.28
2024-02-04T22:38:11.766Z,92807.34
2024-02-04T22:40:38.352Z,92812.28
2024-02-04T22:43:05.621Z,92811.53
2024-02-04T22:45:32.366Z,92819.72
2024-02-04T22:47:58.987Z,92806.09
2024-02-04T22:50:25.648Z,92807.59
2024-02-04T22:52:52.791Z,92818.50
2024-02-04T22:55:19.590Z,92817.00
2024-02-04T22:57:46.311Z,92817.00
2024-02-04T23:00:27.636Z,92816.75
2024-02-04T23:02:58.916Z,92811.06
2024-02-04T23:05:26.456Z,92811.28
2024-02-04T23:07:57.254Z,92828.91
2024-02-04T23:10:25.805Z,92819.47
2024-02-04T23:12:52.646Z,92809.81
2024-02-04T23:15:20.422Z,92804.84
2024-02-04T23:17:47.088Z,92800.13
2024-02-04T23:20:13.784Z,92796.16
2024-02-04T23:22:40.666Z,92804.09
2024-02-04T23:25:07.835Z,92811.06
2024-02-04T23:27:34.580Z,92804.84
2024-02-04T23:30:01.558Z,92799.38
2024-02-04T23:32:28.160Z,92801.38
2024-02-04T23:34:55.347Z,92791.69
2024-02-04T23:37:22.101Z,92792.44
2024-02-04T23:39:48.721Z,92791.69
2024-02-04T23:42:15.368Z,92786.25
2024-02-04T23:44:41.959Z,92786.25
2024-02-04T23:47:08.600Z,92791.69
2024-02-04T23:49:35.227Z,92780.78
2024-02-04T23:52:02.227Z,92787.72
2024-02-04T23:54:28.819Z,92778.06
2024-02-04T23:56:55.403Z,92780.78
2024-02-04T23:59:22.040Z,92786.25
